sensor_id;sensor_type;location;lat;lon;timestamp;temperature;humidity
35497;DHT22;21609;49.298;6.844;2023-12-22T00:00:44;18.20;51.00
35497;DHT22;21609;49.298;6.844;2023-12-22T00:03:13;18.10;51.50
35497;DHT22;21609;49.298;6.844;2023-12-22T00:05:39;18.10;50.90
35497;DHT22;21609;49.298;6.844;2023-12-22T00:08:05;18.10;51.00
35497;DHT22;21609;49.298;6.844;2023-12-22T00:10:31;18.10;51.00
35497;DHT22;21609;49.298;6.844;2023-12-22T00:12:56;18.10;51.00
35497;DHT22;21609;49.298;6.844;2023-12-22T00:15:22;18.10;51.00
35497;DHT22;21609;49.298;6.844;2023-12-22T00:17:47;18.10;51.00
35497;DHT22;21609;49.298;6.844;2023-12-22T00:20:13;18.00;51.00
35497;DHT22;21609;49.298;6.844;2023-12-22T00:22:39;18.00;51.00
35497;DHT22;21609;49.298;6.844;2023-12-22T00:25:05;18.00;51.00
35497;DHT22;21609;49.298;6.844;2023-12-22T00:27:32;18.00;51.00
35497;DHT22;21609;49.298;6.844;2023-12-22T00:29:58;18.00;51.10
35497;DHT22;21609;49.298;6.844;2023-12-22T00:32:23;18.00;51.10
35497;DHT22;21609;49.298;6.844;2023-12-22T00:34:49;17.90;51.10
35497;DHT22;21609;49.298;6.844;2023-12-22T00:37:14;17.90;51.10
35497;DHT22;21609;49.298;6.844;2023-12-22T00:39:40;17.90;51.10
35497;DHT22;21609;49.298;6.844;2023-12-22T00:42:05;17.90;51.10
35497;DHT22;21609;49.298;6.844;2023-12-22T00:44:31;17.90;51.10
35497;DHT22;21609;49.298;6.844;2023-12-22T00:46:57;17.90;51.10
35497;DHT22;21609;49.298;6.844;2023-12-22T00:49:22;17.90;51.20
35497;DHT22;21609;49.298;6.844;2023-12-22T00:51:48;17.90;51.20
35497;DHT22;21609;49.298;6.844;2023-12-22T00:54:13;17.80;51.20
35497;DHT22;21609;49.298;6.844;2023-12-22T00:56:39;17.80;51.20
35497;DHT22;21609;49.298;6.844;2023-12-22T00:59:04;17.80;51.20
35497;DHT22;21609;49.298;6.844;2023-12-22T01:01:30;17.80;51.30
35497;DHT22;21609;49.298;6.844;2023-12-22T01:03:55;17.80;51.30
35497;DHT22;21609;49.298;6.844;2023-12-22T01:06:21;17.80;51.40
35497;DHT22;21609;49.298;6.844;2023-12-22T01:08:47;17.80;51.40
35497;DHT22;21609;49.298;6.844;2023-12-22T01:11:16;17.80;51.30
35497;DHT22;21609;49.298;6.844;2023-12-22T01:13:42;17.70;51.30
35497;DHT22;21609;49.298;6.844;2023-12-22T01:16:07;17.70;51.30
35497;DHT22;21609;49.298;6.844;2023-12-22T01:18:33;17.70;51.40
35497;DHT22;21609;49.298;6.844;2023-12-22T01:20:59;17.70;51.40
35497;DHT22;21609;49.298;6.844;2023-12-22T01:23:24;17.60;51.30
35497;DHT22;21609;49.298;6.844;2023-12-22T01:25:51;17.70;51.40
35497;DHT22;21609;49.298;6.844;2023-12-22T01:28:16;17.70;51.50
35497;DHT22;21609;49.298;6.844;2023-12-22T01:30:42;17.60;51.40
35497;DHT22;21609;49.298;6.844;2023-12-22T01:33:07;17.60;51.40
35497;DHT22;21609;49.298;6.844;2023-12-22T01:35:33;17.60;51.40
35497;DHT22;21609;49.298;6.844;2023-12-22T01:37:58;17.60;51.40
35497;DHT22;21609;49.298;6.844;2023-12-22T01:40:24;17.60;51.40
35497;DHT22;21609;49.298;6.844;2023-12-22T01:42:49;17.60;51.50
35497;DHT22;21609;49.298;6.844;2023-12-22T01:45:15;17.60;51.50
35497;DHT22;21609;49.298;6.844;2023-12-22T01:47:42;17.60;51.50
35497;DHT22;21609;49.298;6.844;2023-12-22T01:50:09;17.50;51.50
35497;DHT22;21609;49.298;6.844;2023-12-22T01:52:39;17.50;51.50
35497;DHT22;21609;49.298;6.844;2023-12-22T01:55:07;17.50;51.50
35497;DHT22;21609;49.298;6.844;2023-12-22T01:57:36;17.50;51.50
35497;DHT22;21609;49.298;6.844;2023-12-22T02:00:02;17.50;51.50
35497;DHT22;21609;49.298;6.844;2023-12-22T02:02:29;17.50;51.60
35497;DHT22;21609;49.298;6.844;2023-12-22T02:04:55;17.50;51.60
35497;DHT22;21609;49.298;6.844;2023-12-22T02:07:21;17.50;51.60
35497;DHT22;21609;49.298;6.844;2023-12-22T02:09:47;17.50;51.60
35497;DHT22;21609;49.298;6.844;2023-12-22T02:12:12;17.40;51.60
35497;DHT22;21609;49.298;6.844;2023-12-22T02:14:38;17.40;51.60
35497;DHT22;21609;49.298;6.844;2023-12-22T02:19:43;17.40;51.70
35497;DHT22;21609;49.298;6.844;2023-12-22T02:22:13;17.40;51.70
35497;DHT22;21609;49.298;6.844;2023-12-22T02:24:39;17.40;51.70
35497;DHT22;21609;49.298;6.844;2023-12-22T02:28:13;17.40;51.70
35497;DHT22;21609;49.298;6.844;2023-12-22T02:30:26;17.40;51.70
35497;DHT22;21609;49.298;6.844;2023-12-22T02:33:00;17.30;51.70
35497;DHT22;21609;49.298;6.844;2023-12-22T02:35:28;17.30;51.70
35497;DHT22;21609;49.298;6.844;2023-12-22T02:37:56;17.30;51.70
35497;DHT22;21609;49.298;6.844;2023-12-22T02:40:23;17.30;51.70
35497;DHT22;21609;49.298;6.844;2023-12-22T02:42:49;17.30;51.80
35497;DHT22;21609;49.298;6.844;2023-12-22T02:45:19;17.30;51.80
35497;DHT22;21609;49.298;6.844;2023-12-22T02:47:46;17.30;52.40
35497;DHT22;21609;49.298;6.844;2023-12-22T02:50:14;17.20;51.70
35497;DHT22;21609;49.298;6.844;2023-12-22T02:52:40;17.20;51.70
35497;DHT22;21609;49.298;6.844;2023-12-22T02:55:06;17.30;51.80
35497;DHT22;21609;49.298;6.844;2023-12-22T02:57:32;17.20;51.70
35497;DHT22;21609;49.298;6.844;2023-12-22T02:59:57;17.20;51.70
35497;DHT22;21609;49.298;6.844;2023-12-22T03:02:23;17.20;51.70
35497;DHT22;21609;49.298;6.844;2023-12-22T03:04:49;17.20;51.80
35497;DHT22;21609;49.298;6.844;2023-12-22T03:07:15;17.20;51.80
35497;DHT22;21609;49.298;6.844;2023-12-22T03:09:41;17.20;51.80
35497;DHT22;21609;49.298;6.844;2023-12-22T03:12:08;17.20;51.80
35497;DHT22;21609;49.298;6.844;2023-12-22T03:14:34;17.20;52.40
35497;DHT22;21609;49.298;6.844;2023-12-22T03:17:03;17.10;51.80
35497;DHT22;21609;49.298;6.844;2023-12-22T03:19:30;17.10;51.80
35497;DHT22;21609;49.298;6.844;2023-12-22T03:21:55;17.10;51.80
35497;DHT22;21609;49.298;6.844;2023-12-22T03:24:22;17.10;51.80
35497;DHT22;21609;49.298;6.844;2023-12-22T03:26:49;17.10;51.80
35497;DHT22;21609;49.298;6.844;2023-12-22T03:29:15;17.20;51.80
35497;DHT22;21609;49.298;6.844;2023-12-22T03:31:40;17.10;51.80
35497;DHT22;21609;49.298;6.844;2023-12-22T03:34:06;17.20;51.90
35497;DHT22;21609;49.298;6.844;2023-12-22T03:36:32;17.10;51.80
35497;DHT22;21609;49.298;6.844;2023-12-22T03:38:58;17.20;52.70
35497;DHT22;21609;49.298;6.844;2023-12-22T03:41:23;17.20;52.00
35497;DHT22;21609;49.298;6.844;2023-12-22T03:43:49;17.10;51.90
35497;DHT22;21609;49.298;6.844;2023-12-22T03:46:14;17.10;51.90
35497;DHT22;21609;49.298;6.844;2023-12-22T03:48:40;17.10;52.00
35497;DHT22;21609;49.298;6.844;2023-12-22T03:51:06;17.10;52.00
35497;DHT22;21609;49.298;6.844;2023-12-22T03:53:31;17.10;52.00
35497;DHT22;21609;49.298;6.844;2023-12-22T03:55:57;17.10;52.00
35497;DHT22;21609;49.298;6.844;2023-12-22T03:58:22;17.00;52.00
35497;DHT22;21609;49.298;6.844;2023-12-22T04:00:48;17.00;52.10
35497;DHT22;21609;49.298;6.844;2023-12-22T04:03:14;17.00;52.10
35497;DHT22;21609;49.298;6.844;2023-12-22T04:05:39;17.00;52.10
35497;DHT22;21609;49.298;6.844;2023-12-22T04:08:05;17.00;52.10
35497;DHT22;21609;49.298;6.844;2023-12-22T04:10:31;17.00;52.10
35497;DHT22;21609;49.298;6.844;2023-12-22T04:12:57;17.00;52.10
35497;DHT22;21609;49.298;6.844;2023-12-22T04:15:22;16.90;52.10
35497;DHT22;21609;49.298;6.844;2023-12-22T04:17:48;16.90;52.10
35497;DHT22;21609;49.298;6.844;2023-12-22T04:20:15;16.90;52.10
35497;DHT22;21609;49.298;6.844;2023-12-22T04:22:40;16.90;52.10
35497;DHT22;21609;49.298;6.844;2023-12-22T04:25:06;16.90;52.10
35497;DHT22;21609;49.298;6.844;2023-12-22T04:27:33;16.90;52.10
35497;DHT22;21609;49.298;6.844;2023-12-22T04:29:58;16.90;52.10
35497;DHT22;21609;49.298;6.844;2023-12-22T04:32:24;16.90;52.20
35497;DHT22;21609;49.298;6.844;2023-12-22T04:34:49;16.90;52.10
35497;DHT22;21609;49.298;6.844;2023-12-22T04:37:15;16.90;52.20
35497;DHT22;21609;49.298;6.844;2023-12-22T04:39:40;16.90;52.20
35497;DHT22;21609;49.298;6.844;2023-12-22T04:42:06;16.80;52.20
35497;DHT22;21609;49.298;6.844;2023-12-22T04:44:31;16.80;52.20
35497;DHT22;21609;49.298;6.844;2023-12-22T04:46:57;16.80;52.20
35497;DHT22;21609;49.298;6.844;2023-12-22T04:49:23;16.80;52.10
35497;DHT22;21609;49.298;6.844;2023-12-22T04:51:48;16.80;52.20
35497;DHT22;21609;49.298;6.844;2023-12-22T04:54:14;16.80;52.20
35497;DHT22;21609;49.298;6.844;2023-12-22T04:56:39;16.80;52.20
35497;DHT22;21609;49.298;6.844;2023-12-22T04:59:05;16.80;52.20
35497;DHT22;21609;49.298;6.844;2023-12-22T05:01:30;16.80;52.20
35497;DHT22;21609;49.298;6.844;2023-12-22T05:03:56;16.80;52.20
35497;DHT22;21609;49.298;6.844;2023-12-22T05:06:21;16.80;52.20
35497;DHT22;21609;49.298;6.844;2023-12-22T05:08:47;16.80;52.20
35497;DHT22;21609;49.298;6.844;2023-12-22T05:11:13;16.70;52.20
35497;DHT22;21609;49.298;6.844;2023-12-22T05:13:38;16.70;52.20
35497;DHT22;21609;49.298;6.844;2023-12-22T05:16:05;16.70;52.20
35497;DHT22;21609;49.298;6.844;2023-12-22T05:18:31;16.70;52.20
35497;DHT22;21609;49.298;6.844;2023-12-22T05:20:57;16.70;52.30
35497;DHT22;21609;49.298;6.844;2023-12-22T05:23:22;16.70;52.20
35497;DHT22;21609;49.298;6.844;2023-12-22T05:25:48;16.70;52.30
35497;DHT22;21609;49.298;6.844;2023-12-22T05:28:13;16.70;52.20
35497;DHT22;21609;49.298;6.844;2023-12-22T05:30:39;16.70;52.20
35497;DHT22;21609;49.298;6.844;2023-12-22T05:33:04;16.70;52.20
35497;DHT22;21609;49.298;6.844;2023-12-22T05:35:30;16.70;52.30
35497;DHT22;21609;49.298;6.844;2023-12-22T05:37:55;16.70;52.70
35497;DHT22;21609;49.298;6.844;2023-12-22T05:40:21;16.70;52.20
35497;DHT22;21609;49.298;6.844;2023-12-22T05:42:46;16.70;52.30
35497;DHT22;21609;49.298;6.844;2023-12-22T05:45:13;16.70;52.30
35497;DHT22;21609;49.298;6.844;2023-12-22T05:47:39;16.70;52.30
35497;DHT22;21609;49.298;6.844;2023-12-22T05:50:05;16.70;52.30
35497;DHT22;21609;49.298;6.844;2023-12-22T05:52:30;16.60;52.30
35497;DHT22;21609;49.298;6.844;2023-12-22T05:54:56;16.70;52.30
35497;DHT22;21609;49.298;6.844;2023-12-22T05:57:21;16.60;52.30
35497;DHT22;21609;49.298;6.844;2023-12-22T05:59:47;16.60;52.30
35497;DHT22;21609;49.298;6.844;2023-12-22T06:02:12;16.60;52.30
35497;DHT22;21609;49.298;6.844;2023-12-22T06:04:38;16.60;52.30
35497;DHT22;21609;49.298;6.844;2023-12-22T06:07:05;16.60;52.40
35497;DHT22;21609;49.298;6.844;2023-12-22T06:09:31;16.60;52.40
35497;DHT22;21609;49.298;6.844;2023-12-22T06:11:56;16.60;52.40
35497;DHT22;21609;49.298;6.844;2023-12-22T06:14:23;16.60;52.40
35497;DHT22;21609;49.298;6.844;2023-12-22T06:16:48;16.60;52.40
35497;DHT22;21609;49.298;6.844;2023-12-22T06:19:14;16.50;52.30
35497;DHT22;21609;49.298;6.844;2023-12-22T06:21:40;16.60;52.80
35497;DHT22;21609;49.298;6.844;2023-12-22T06:24:06;16.70;53.50
35497;DHT22;21609;49.298;6.844;2023-12-22T06:26:33;16.70;53.60
35497;DHT22;21609;49.298;6.844;2023-12-22T06:28:58;16.70;53.30
35497;DHT22;21609;49.298;6.844;2023-12-22T06:31:25;16.70;53.20
35497;DHT22;21609;49.298;6.844;2023-12-22T06:33:51;16.60;52.90
35497;DHT22;21609;49.298;6.844;2023-12-22T06:36:24;16.60;52.80
35497;DHT22;21609;49.298;6.844;2023-12-22T06:38:51;16.60;52.80
35497;DHT22;21609;49.298;6.844;2023-12-22T06:43:46;16.60;52.90
35497;DHT22;21609;49.298;6.844;2023-12-22T06:46:18;16.60;52.80
35497;DHT22;21609;49.298;6.844;2023-12-22T06:48:44;16.50;52.80
35497;DHT22;21609;49.298;6.844;2023-12-22T06:51:20;16.50;52.80
35497;DHT22;21609;49.298;6.844;2023-12-22T06:53:50;16.50;52.80
35497;DHT22;21609;49.298;6.844;2023-12-22T06:56:20;16.60;53.00
35497;DHT22;21609;49.298;6.844;2023-12-22T06:58:47;16.50;53.00
35497;DHT22;21609;49.298;6.844;2023-12-22T07:01:29;16.50;52.80
35497;DHT22;21609;49.298;6.844;2023-12-22T07:03:55;16.40;53.10
35497;DHT22;21609;49.298;6.844;2023-12-22T07:06:22;16.40;53.20
35497;DHT22;21609;49.298;6.844;2023-12-22T07:09:41;16.40;53.10
35497;DHT22;21609;49.298;6.844;2023-12-22T07:11:50;16.40;53.00
35497;DHT22;21609;49.298;6.844;2023-12-22T07:14:17;16.40;53.00
35497;DHT22;21609;49.298;6.844;2023-12-22T07:16:43;16.50;52.90
35497;DHT22;21609;49.298;6.844;2023-12-22T07:19:09;16.40;52.90
35497;DHT22;21609;49.298;6.844;2023-12-22T07:21:34;16.40;52.90
35497;DHT22;21609;49.298;6.844;2023-12-22T07:24:00;16.40;52.90
35497;DHT22;21609;49.298;6.844;2023-12-22T07:26:26;16.40;52.80
35497;DHT22;21609;49.298;6.844;2023-12-22T07:28:52;16.40;52.90
35497;DHT22;21609;49.298;6.844;2023-12-22T07:31:18;16.40;53.00
35497;DHT22;21609;49.298;6.844;2023-12-22T07:33:43;16.40;52.90
35497;DHT22;21609;49.298;6.844;2023-12-22T07:36:09;16.40;53.30
35497;DHT22;21609;49.298;6.844;2023-12-22T07:38:36;16.40;53.80
35497;DHT22;21609;49.298;6.844;2023-12-22T07:41:01;16.40;53.00
35497;DHT22;21609;49.298;6.844;2023-12-22T07:43:27;16.40;53.00
35497;DHT22;21609;49.298;6.844;2023-12-22T07:45:54;16.40;53.10
35497;DHT22;21609;49.298;6.844;2023-12-22T07:48:20;16.40;53.00
35497;DHT22;21609;49.298;6.844;2023-12-22T07:50:46;16.30;53.00
35497;DHT22;21609;49.298;6.844;2023-12-22T07:53:11;16.40;53.00
35497;DHT22;21609;49.298;6.844;2023-12-22T07:55:37;16.30;53.00
35497;DHT22;21609;49.298;6.844;2023-12-22T07:58:04;16.30;53.00
35497;DHT22;21609;49.298;6.844;2023-12-22T08:00:30;16.30;53.00
35497;DHT22;21609;49.298;6.844;2023-12-22T08:02:56;16.40;53.50
35497;DHT22;21609;49.298;6.844;2023-12-22T08:05:21;16.40;53.80
35497;DHT22;21609;49.298;6.844;2023-12-22T08:07:47;16.50;53.70
35497;DHT22;21609;49.298;6.844;2023-12-22T08:10:13;16.50;53.80
35497;DHT22;21609;49.298;6.844;2023-12-22T08:12:38;16.50;53.90
35497;DHT22;21609;49.298;6.844;2023-12-22T08:15:04;16.50;54.10
35497;DHT22;21609;49.298;6.844;2023-12-22T08:17:30;16.50;54.00
35497;DHT22;21609;49.298;6.844;2023-12-22T08:19:56;16.50;53.90
35497;DHT22;21609;49.298;6.844;2023-12-22T08:22:22;16.60;54.00
35497;DHT22;21609;49.298;6.844;2023-12-22T08:24:49;16.60;54.10
35497;DHT22;21609;49.298;6.844;2023-12-22T08:27:14;16.60;54.10
35497;DHT22;21609;49.298;6.844;2023-12-22T08:29:40;16.60;54.00
35497;DHT22;21609;49.298;6.844;2023-12-22T08:32:05;16.60;54.00
35497;DHT22;21609;49.298;6.844;2023-12-22T08:34:31;16.60;54.10
35497;DHT22;21609;49.298;6.844;2023-12-22T08:36:57;16.60;54.10
35497;DHT22;21609;49.298;6.844;2023-12-22T08:39:22;16.60;54.20
35497;DHT22;21609;49.298;6.844;2023-12-22T08:41:49;16.60;54.10
35497;DHT22;21609;49.298;6.844;2023-12-22T08:44:15;16.60;54.10
35497;DHT22;21609;49.298;6.844;2023-12-22T08:46:41;16.60;54.10
35497;DHT22;21609;49.298;6.844;2023-12-22T08:49:06;16.60;54.10
35497;DHT22;21609;49.298;6.844;2023-12-22T08:51:33;16.60;54.00
35497;DHT22;21609;49.298;6.844;2023-12-22T08:53:59;16.60;54.10
35497;DHT22;21609;49.298;6.844;2023-12-22T08:56:25;16.60;54.10
35497;DHT22;21609;49.298;6.844;2023-12-22T08:58:52;16.60;54.10
35497;DHT22;21609;49.298;6.844;2023-12-22T09:01:20;16.60;54.10
35497;DHT22;21609;49.298;6.844;2023-12-22T09:03:47;16.60;54.10
35497;DHT22;21609;49.298;6.844;2023-12-22T09:06:17;16.60;54.10
35497;DHT22;21609;49.298;6.844;2023-12-22T09:08:43;16.60;54.10
35497;DHT22;21609;49.298;6.844;2023-12-22T09:11:12;16.60;54.10
35497;DHT22;21609;49.298;6.844;2023-12-22T09:13:39;16.60;54.20
35497;DHT22;21609;49.298;6.844;2023-12-22T09:16:05;16.60;54.10
35497;DHT22;21609;49.298;6.844;2023-12-22T09:18:31;16.60;54.20
35497;DHT22;21609;49.298;6.844;2023-12-22T09:20:57;16.60;54.10
35497;DHT22;21609;49.298;6.844;2023-12-22T09:23:23;16.60;54.10
35497;DHT22;21609;49.298;6.844;2023-12-22T09:25:49;16.60;54.10
35497;DHT22;21609;49.298;6.844;2023-12-22T09:28:15;16.60;54.10
35497;DHT22;21609;49.298;6.844;2023-12-22T09:30:40;16.60;54.20
35497;DHT22;21609;49.298;6.844;2023-12-22T09:33:07;16.60;54.10
35497;DHT22;21609;49.298;6.844;2023-12-22T09:35:33;16.60;54.10
35497;DHT22;21609;49.298;6.844;2023-12-22T09:37:58;16.60;54.10
35497;DHT22;21609;49.298;6.844;2023-12-22T09:40:24;16.60;54.10
35497;DHT22;21609;49.298;6.844;2023-12-22T09:42:50;16.60;54.10
35497;DHT22;21609;49.298;6.844;2023-12-22T09:45:19;16.60;54.10
35497;DHT22;21609;49.298;6.844;2023-12-22T09:47:46;16.60;54.10
35497;DHT22;21609;49.298;6.844;2023-12-22T09:50:12;16.60;54.10
35497;DHT22;21609;49.298;6.844;2023-12-22T09:52:40;16.60;54.10
35497;DHT22;21609;49.298;6.844;2023-12-22T09:55:08;16.60;54.00
35497;DHT22;21609;49.298;6.844;2023-12-22T09:57:35;16.60;54.10
35497;DHT22;21609;49.298;6.844;2023-12-22T10:00:03;16.60;54.00
35497;DHT22;21609;49.298;6.844;2023-12-22T10:02:33;16.60;54.10
35497;DHT22;21609;49.298;6.844;2023-12-22T10:05:00;16.60;54.10
35497;DHT22;21609;49.298;6.844;2023-12-22T10:07:26;16.60;54.10
35497;DHT22;21609;49.298;6.844;2023-12-22T10:09:52;16.60;54.10
35497;DHT22;21609;49.298;6.844;2023-12-22T10:12:19;16.60;54.10
35497;DHT22;21609;49.298;6.844;2023-12-22T10:14:46;16.60;54.10
35497;DHT22;21609;49.298;6.844;2023-12-22T10:17:12;16.60;54.10
35497;DHT22;21609;49.298;6.844;2023-12-22T10:19:39;16.60;54.10
35497;DHT22;21609;49.298;6.844;2023-12-22T10:22:04;16.60;54.10
35497;DHT22;21609;49.298;6.844;2023-12-22T10:24:43;16.60;54.10
35497;DHT22;21609;49.298;6.844;2023-12-22T10:27:11;16.60;54.10
35497;DHT22;21609;49.298;6.844;2023-12-22T10:29:36;16.60;54.10
35497;DHT22;21609;49.298;6.844;2023-12-22T10:32:04;16.60;54.10
35497;DHT22;21609;49.298;6.844;2023-12-22T10:34:30;16.60;54.10
35497;DHT22;21609;49.298;6.844;2023-12-22T10:36:56;16.60;54.10
35497;DHT22;21609;49.298;6.844;2023-12-22T10:39:22;16.60;54.10
35497;DHT22;21609;49.298;6.844;2023-12-22T10:41:48;16.60;54.10
35497;DHT22;21609;49.298;6.844;2023-12-22T10:44:17;16.60;54.10
35497;DHT22;21609;49.298;6.844;2023-12-22T10:46:43;16.60;54.10
35497;DHT22;21609;49.298;6.844;2023-12-22T10:49:09;16.60;54.10
35497;DHT22;21609;49.298;6.844;2023-12-22T10:51:34;16.60;54.10
35497;DHT22;21609;49.298;6.844;2023-12-22T10:54:00;16.60;54.10
35497;DHT22;21609;49.298;6.844;2023-12-22T10:56:25;16.60;54.10
35497;DHT22;21609;49.298;6.844;2023-12-22T10:58:52;16.60;54.10
35497;DHT22;21609;49.298;6.844;2023-12-22T11:01:21;16.60;54.20
35497;DHT22;21609;49.298;6.844;2023-12-22T11:03:50;16.60;54.10
35497;DHT22;21609;49.298;6.844;2023-12-22T11:06:16;16.60;54.10
35497;DHT22;21609;49.298;6.844;2023-12-22T11:08:43;16.60;54.10
35497;DHT22;21609;49.298;6.844;2023-12-22T11:11:27;16.60;54.10
35497;DHT22;21609;49.298;6.844;2023-12-22T11:13:56;16.60;54.10
35497;DHT22;21609;49.298;6.844;2023-12-22T11:16:30;16.60;54.10
35497;DHT22;21609;49.298;6.844;2023-12-22T11:18:56;16.60;54.10
35497;DHT22;21609;49.298;6.844;2023-12-22T11:21:23;16.60;54.10
35497;DHT22;21609;49.298;6.844;2023-12-22T11:23:53;16.60;54.10
35497;DHT22;21609;49.298;6.844;2023-12-22T11:26:20;16.60;54.10
35497;DHT22;21609;49.298;6.844;2023-12-22T11:28:48;16.60;54.10
35497;DHT22;21609;49.298;6.844;2023-12-22T11:31:14;16.60;54.10
35497;DHT22;21609;49.298;6.844;2023-12-22T11:33:45;16.60;54.20
35497;DHT22;21609;49.298;6.844;2023-12-22T11:36:12;16.60;54.10
35497;DHT22;21609;49.298;6.844;2023-12-22T11:38:41;16.60;54.20
35497;DHT22;21609;49.298;6.844;2023-12-22T11:41:11;16.60;54.20
35497;DHT22;21609;49.298;6.844;2023-12-22T11:43:40;16.60;54.20
35497;DHT22;21609;49.298;6.844;2023-12-22T11:46:06;16.60;54.20
35497;DHT22;21609;49.298;6.844;2023-12-22T11:48:32;16.60;54.10
35497;DHT22;21609;49.298;6.844;2023-12-22T11:50:58;16.60;54.20
35497;DHT22;21609;49.298;6.844;2023-12-22T11:53:25;16.60;54.20
35497;DHT22;21609;49.298;6.844;2023-12-22T11:55:57;16.60;54.20
35497;DHT22;21609;49.298;6.844;2023-12-22T12:01:11;16.60;54.20
35497;DHT22;21609;49.298;6.844;2023-12-22T12:04:02;16.60;54.20
35497;DHT22;21609;49.298;6.844;2023-12-22T12:08:56;16.60;54.30
35497;DHT22;21609;49.298;6.844;2023-12-22T12:11:23;16.60;54.20
35497;DHT22;21609;49.298;6.844;2023-12-22T12:13:49;16.60;54.20
35497;DHT22;21609;49.298;6.844;2023-12-22T12:16:19;16.60;54.20
35497;DHT22;21609;49.298;6.844;2023-12-22T12:18:50;16.60;54.20
35497;DHT22;21609;49.298;6.844;2023-12-22T12:21:16;16.60;54.20
35497;DHT22;21609;49.298;6.844;2023-12-22T12:23:42;16.60;54.20
35497;DHT22;21609;49.298;6.844;2023-12-22T12:26:08;16.60;54.20
35497;DHT22;21609;49.298;6.844;2023-12-22T12:28:35;16.60;54.20
35497;DHT22;21609;49.298;6.844;2023-12-22T12:31:06;16.60;54.20
35497;DHT22;21609;49.298;6.844;2023-12-22T12:33:32;16.60;54.20
35497;DHT22;21609;49.298;6.844;2023-12-22T12:35:59;16.60;54.20
35497;DHT22;21609;49.298;6.844;2023-12-22T12:38:39;16.60;54.20
35497;DHT22;21609;49.298;6.844;2023-12-22T12:41:09;16.60;54.20
35497;DHT22;21609;49.298;6.844;2023-12-22T12:43:36;16.60;54.20
35497;DHT22;21609;49.298;6.844;2023-12-22T12:46:06;16.60;54.20
35497;DHT22;21609;49.298;6.844;2023-12-22T12:48:31;16.60;54.30
35497;DHT22;21609;49.298;6.844;2023-12-22T12:51:04;16.50;54.20
35497;DHT22;21609;49.298;6.844;2023-12-22T12:53:31;16.60;54.20
35497;DHT22;21609;49.298;6.844;2023-12-22T12:55:58;16.60;54.30
35497;DHT22;21609;49.298;6.844;2023-12-22T12:58:31;16.60;54.20
35497;DHT22;21609;49.298;6.844;2023-12-22T13:01:07;16.60;54.20
35497;DHT22;21609;49.298;6.844;2023-12-22T13:03:43;16.60;54.30
35497;DHT22;21609;49.298;6.844;2023-12-22T13:06:16;16.60;54.30
35497;DHT22;21609;49.298;6.844;2023-12-22T13:08:50;16.60;54.30
35497;DHT22;21609;49.298;6.844;2023-12-22T13:11:21;16.60;54.30
35497;DHT22;21609;49.298;6.844;2023-12-22T13:13:46;16.60;54.20
35497;DHT22;21609;49.298;6.844;2023-12-22T13:16:12;16.60;54.30
35497;DHT22;21609;49.298;6.844;2023-12-22T13:18:38;16.60;54.30
35497;DHT22;21609;49.298;6.844;2023-12-22T13:21:04;16.60;54.20
35497;DHT22;21609;49.298;6.844;2023-12-22T13:23:29;16.50;54.20
35497;DHT22;21609;49.298;6.844;2023-12-22T13:25:55;16.60;54.30
35497;DHT22;21609;49.298;6.844;2023-12-22T13:28:27;16.60;54.30
35497;DHT22;21609;49.298;6.844;2023-12-22T13:30:53;16.60;54.20
35497;DHT22;21609;49.298;6.844;2023-12-22T13:33:19;16.60;54.30
35497;DHT22;21609;49.298;6.844;2023-12-22T13:35:45;16.60;54.30
35497;DHT22;21609;49.298;6.844;2023-12-22T13:38:12;16.60;54.30
35497;DHT22;21609;49.298;6.844;2023-12-22T13:40:38;16.50;54.30
35497;DHT22;21609;49.298;6.844;2023-12-22T13:43:04;16.60;54.30
35497;DHT22;21609;49.298;6.844;2023-12-22T13:45:33;16.60;54.30
35497;DHT22;21609;49.298;6.844;2023-12-22T13:47:58;16.50;54.30
35497;DHT22;21609;49.298;6.844;2023-12-22T13:50:24;16.50;54.20
35497;DHT22;21609;49.298;6.844;2023-12-22T13:52:50;16.50;54.30
35497;DHT22;21609;49.298;6.844;2023-12-22T13:55:18;16.50;54.30
35497;DHT22;21609;49.298;6.844;2023-12-22T13:57:44;16.50;54.30
35497;DHT22;21609;49.298;6.844;2023-12-22T14:02:48;16.50;54.30
35497;DHT22;21609;49.298;6.844;2023-12-22T14:05:15;16.50;54.30
35497;DHT22;21609;49.298;6.844;2023-12-22T14:07:40;16.50;54.30
35497;DHT22;21609;49.298;6.844;2023-12-22T14:10:07;16.60;54.30
35497;DHT22;21609;49.298;6.844;2023-12-22T14:12:33;16.50;54.20
35497;DHT22;21609;49.298;6.844;2023-12-22T14:14:58;16.60;54.30
35497;DHT22;21609;49.298;6.844;2023-12-22T14:17:24;16.50;54.50
35497;DHT22;21609;49.298;6.844;2023-12-22T14:19:50;16.50;54.20
35497;DHT22;21609;49.298;6.844;2023-12-22T14:22:15;16.50;54.20
35497;DHT22;21609;49.298;6.844;2023-12-22T14:24:41;16.50;54.30
35497;DHT22;21609;49.298;6.844;2023-12-22T14:27:06;16.50;54.30
35497;DHT22;21609;49.298;6.844;2023-12-22T14:29:32;16.50;54.30
35497;DHT22;21609;49.298;6.844;2023-12-22T14:31:58;16.50;54.30
35497;DHT22;21609;49.298;6.844;2023-12-22T14:34:24;16.50;54.30
35497;DHT22;21609;49.298;6.844;2023-12-22T14:36:49;16.50;54.30
35497;DHT22;21609;49.298;6.844;2023-12-22T14:39:15;16.50;54.30
35497;DHT22;21609;49.298;6.844;2023-12-22T14:41:41;16.50;54.30
35497;DHT22;21609;49.298;6.844;2023-12-22T14:44:08;16.50;54.20
35497;DHT22;21609;49.298;6.844;2023-12-22T14:46:37;16.50;54.30
35497;DHT22;21609;49.298;6.844;2023-12-22T14:49:04;16.50;54.30
35497;DHT22;21609;49.298;6.844;2023-12-22T14:51:37;16.50;54.30
35497;DHT22;21609;49.298;6.844;2023-12-22T14:54:04;16.50;54.30
35497;DHT22;21609;49.298;6.844;2023-12-22T14:56:30;16.50;54.30
35497;DHT22;21609;49.298;6.844;2023-12-22T14:58:55;16.50;54.30
35497;DHT22;21609;49.298;6.844;2023-12-22T15:01:21;16.50;54.30
35497;DHT22;21609;49.298;6.844;2023-12-22T15:03:46;16.50;54.30
35497;DHT22;21609;49.298;6.844;2023-12-22T15:06:12;16.50;54.30
35497;DHT22;21609;49.298;6.844;2023-12-22T15:08:37;16.50;54.30
35497;DHT22;21609;49.298;6.844;2023-12-22T15:11:03;16.50;54.30
35497;DHT22;21609;49.298;6.844;2023-12-22T15:13:29;16.50;54.30
35497;DHT22;21609;49.298;6.844;2023-12-22T15:15:54;16.50;54.40
35497;DHT22;21609;49.298;6.844;2023-12-22T15:18:20;16.50;54.30
35497;DHT22;21609;49.298;6.844;2023-12-22T15:20:46;16.50;54.30
35497;DHT22;21609;49.298;6.844;2023-12-22T15:23:11;16.50;54.30
35497;DHT22;21609;49.298;6.844;2023-12-22T15:25:37;16.50;54.30
35497;DHT22;21609;49.298;6.844;2023-12-22T15:28:02;16.50;54.30
35497;DHT22;21609;49.298;6.844;2023-12-22T15:30:28;16.50;54.30
35497;DHT22;21609;49.298;6.844;2023-12-22T15:32:54;16.50;54.30
35497;DHT22;21609;49.298;6.844;2023-12-22T15:35:19;16.50;54.30
35497;DHT22;21609;49.298;6.844;2023-12-22T15:37:45;16.50;54.30
35497;DHT22;21609;49.298;6.844;2023-12-22T15:40:11;16.50;54.30